createdAt,value
2019-05-26T00:09:07.000Z,43.6
2019-05-26T00:19:07.000Z,43.3
2019-05-26T00:29:11.000Z,43.4
2019-05-26T00:39:09.000Z,43.5
2019-05-26T00:49:07.000Z,43.7
2019-05-26T00:59:07.000Z,43.5
2019-05-26T01:09:07.000Z,43.6
2019-05-26T01:19:07.000Z,43.7
2019-05-26T01:29:07.000Z,43.5
2019-05-26T01:39:07.000Z,43.6
2019-05-26T01:49:07.000Z,43.6
2019-05-26T01:59:07.000Z,43.5
2019-05-26T02:09:07.000Z,43.2
2019-05-26T02:19:07.000Z,43
2019-05-26T02:29:09.000Z,43.4
2019-05-26T02:39:07.000Z,43.5
2019-05-26T02:49:07.000Z,43.5
2019-05-26T02:59:07.000Z,43.4
2019-05-26T03:09:07.000Z,43.5
2019-05-26T03:19:11.000Z,43.8
2019-05-26T03:39:07.000Z,43.8
2019-05-26T03:49:07.000Z,44
2019-05-26T03:59:07.000Z,44.4
2019-05-26T04:19:07.000Z,44.4
2019-05-26T04:29:07.000Z,44.8
2019-05-26T04:39:07.000Z,45.5
2019-05-26T04:49:09.000Z,44.7
2019-05-26T04:59:10.000Z,44.9
2019-05-26T05:09:07.000Z,45.1
2019-05-26T05:29:08.000Z,45.3
2019-05-26T05:39:08.000Z,45.6
2019-05-26T05:49:08.000Z,46
2019-05-26T05:59:08.000Z,46.2
2019-05-26T06:09:08.000Z,46.4
2019-05-26T06:19:08.000Z,47
2019-05-26T06:29:08.000Z,46.1
2019-05-26T06:39:08.000Z,46.9
2019-05-26T06:49:08.000Z,46.7
2019-05-26T06:59:08.000Z,46.3
2019-05-26T07:09:08.000Z,45.9
2019-05-26T07:19:11.000Z,46
2019-05-26T07:29:08.000Z,46.1
2019-05-26T07:39:08.000Z,46.1
2019-05-26T07:49:08.000Z,46.5
2019-05-26T07:59:08.000Z,46.5
2019-05-26T08:09:08.000Z,46.6
2019-05-26T08:19:08.000Z,47.2
2019-05-26T08:29:08.000Z,47.7
2019-05-26T08:39:08.000Z,47.7
2019-05-26T08:49:08.000Z,49.3
2019-05-26T08:59:08.000Z,50
2019-05-26T09:09:08.000Z,49.7
2019-05-26T09:19:08.000Z,49.4
2019-05-26T09:29:08.000Z,50.2
2019-05-26T09:39:08.000Z,51
2019-05-26T09:49:08.000Z,52
2019-05-26T09:59:08.000Z,52.4
2019-05-26T10:09:09.000Z,52.2
2019-05-26T10:19:08.000Z,52.1
2019-05-26T10:29:08.000Z,52.7
2019-05-26T10:39:08.000Z,51.9
2019-05-26T10:49:08.000Z,51.3
2019-05-26T10:59:08.000Z,51.6
2019-05-26T11:09:09.000Z,51.6
2019-05-26T11:19:10.000Z,51.8
2019-05-26T11:29:08.000Z,51.8
2019-05-26T11:39:08.000Z,51.8
2019-05-26T11:49:08.000Z,52
2019-05-26T11:59:08.000Z,52
2019-05-26T12:09:08.000Z,52.1
2019-05-26T12:19:10.000Z,52.1
2019-05-26T12:29:09.000Z,52.2
2019-05-26T12:39:09.000Z,52.3
2019-05-26T12:49:09.000Z,52.3
2019-05-26T12:59:09.000Z,52.3
2019-05-26T13:09:09.000Z,52.4
2019-05-26T13:19:09.000Z,52.4
2019-05-26T13:29:11.000Z,52.6
2019-05-26T13:49:09.000Z,52.6
2019-05-26T13:59:09.000Z,52.6
2019-05-26T14:09:10.000Z,52.7
2019-05-26T14:19:09.000Z,52.7
2019-05-26T14:29:11.000Z,52.7
2019-05-26T14:39:09.000Z,52.8
2019-05-26T14:49:09.000Z,52.9
2019-05-26T14:59:09.000Z,52.9
2019-05-26T15:09:09.000Z,53
2019-05-26T15:29:09.000Z,53.1
2019-05-26T15:39:09.000Z,53.3
2019-05-26T15:49:09.000Z,53.2
2019-05-26T15:59:09.000Z,53.2
2019-05-26T16:09:09.000Z,53.4
2019-05-26T16:19:09.000Z,53.2
2019-05-26T16:29:09.000Z,53.3
2019-05-26T16:39:09.000Z,53.2
2019-05-26T16:49:09.000Z,53.3
2019-05-26T16:59:09.000Z,53.6
2019-05-26T17:09:09.000Z,53.8
2019-05-26T17:19:09.000Z,53.7
2019-05-26T17:29:09.000Z,53.8
2019-05-26T17:39:09.000Z,53.8
2019-05-26T17:49:09.000Z,53.5
2019-05-26T17:59:09.000Z,53.8
2019-05-26T18:09:09.000Z,54.2
2019-05-26T18:19:09.000Z,54.5
2019-05-26T18:29:09.000Z,54.9
2019-05-26T18:39:09.000Z,55
2019-05-26T18:49:10.000Z,55.2
2019-05-26T18:59:10.000Z,55.4
2019-05-26T19:09:10.000Z,55.5
2019-05-26T19:29:10.000Z,55.6
2019-05-26T19:39:10.000Z,54.9
2019-05-26T19:49:10.000Z,55.5
2019-05-26T19:59:11.000Z,55.7
2019-05-26T20:09:10.000Z,55.9
2019-05-26T20:19:10.000Z,56.1
2019-05-26T20:29:10.000Z,56.2
2019-05-26T20:39:10.000Z,56.3
2019-05-26T20:49:10.000Z,56.4
2019-05-26T20:59:10.000Z,56.8
2019-05-26T21:09:10.000Z,53.8
2019-05-26T21:19:11.000Z,52.1
2019-05-26T21:29:10.000Z,50.1
2019-05-26T21:39:10.000Z,49.2
2019-05-26T21:49:10.000Z,48.7
2019-05-26T21:59:10.000Z,48.5
2019-05-26T22:09:10.000Z,48.9
2019-05-26T22:19:11.000Z,48.8
2019-05-26T22:29:10.000Z,48.9
2019-05-26T22:39:10.000Z,49.2
2019-05-26T22:49:10.000Z,49.1
2019-05-26T22:59:10.000Z,49.1
2019-05-26T23:09:11.000Z,49.5
2019-05-26T23:19:10.000Z,49.8
2019-05-26T23:29:10.000Z,50.1
2019-05-26T23:39:10.000Z,50.2
2019-05-26T23:49:10.000Z,50.7
2019-05-26T23:59:10.000Z,50.7
